createdAt,value
2022-11-14T00:06:35.264Z,14.93
2022-11-14T00:11:45.539Z,12.20
2022-11-14T00:19:22.574Z,14.52
2022-11-14T00:26:58.522Z,13.93
2022-11-14T00:32:09.242Z,13.27
2022-11-14T00:39:45.376Z,14.35
2022-11-14T00:42:30.614Z,14.85
2022-11-14T00:45:15.554Z,14.15
2022-11-14T00:47:42.116Z,15.20
2022-11-14T00:50:27.089Z,13.80
2022-11-14T00:55:19.118Z,14.23
2022-11-14T00:58:04.669Z,15.15
2022-11-14T01:00:31.397Z,14.35
2022-11-14T01:03:16.404Z,14.25
2022-11-14T01:10:35.288Z,14.48
2022-11-14T01:15:47.193Z,14.48
2022-11-14T01:18:32.731Z,14.85
2022-11-14T01:21:18.193Z,13.77
2022-11-14T01:28:54.234Z,13.20
2022-11-14T01:31:39.446Z,12.68
2022-11-14T01:34:24.795Z,12.88
2022-11-14T01:39:16.863Z,13.45
2022-11-14T01:42:02.057Z,13.48
2022-11-14T01:44:52.511Z,12.57
2022-11-14T01:49:48.505Z,12.40
2022-11-14T01:55:00.012Z,13.07
2022-11-14T01:57:47.147Z,11.93
2022-11-14T02:00:14.257Z,11.80
2022-11-14T02:03:00.817Z,12.77
2022-11-14T02:08:31.707Z,12.07
2022-11-14T02:11:16.911Z,11.85
2022-11-14T02:14:02.534Z,11.82
2022-11-14T02:17:07.306Z,12.25
2022-11-14T02:20:06.745Z,12.45
2022-11-14T02:22:51.776Z,12.07
2022-11-14T02:35:19.097Z,16.23
2022-11-14T02:40:29.780Z,17.35
2022-11-14T02:43:15.262Z,17.27
2022-11-14T02:46:05.417Z,15.18
2022-11-14T02:48:32.747Z,15.68
2022-11-14T02:51:18.101Z,15.40
2022-11-14T02:58:54.185Z,13.10
2022-11-14T03:01:39.204Z,13.48
2022-11-14T03:04:24.610Z,13.70
2022-11-14T03:09:35.391Z,13.40
2022-11-14T03:12:20.618Z,13.30
2022-11-14T03:19:38.582Z,14.82
2022-11-14T03:24:49.363Z,15.75
2022-11-14T03:27:34.843Z,16.45
2022-11-14T03:32:26.902Z,15.82
2022-11-14T03:35:11.804Z,16.95
2022-11-14T03:40:22.642Z,17.92
2022-11-14T03:43:07.971Z,18.45
2022-11-14T03:45:53.229Z,17.58
2022-11-14T03:50:45.230Z,18.70
2022-11-14T03:53:30.312Z,17.88
2022-11-14T03:56:15.374Z,18.58
2022-11-14T04:01:07.588Z,17.88
2022-11-14T04:03:53.054Z,17.55
2022-11-14T04:06:19.656Z,17.27
2022-11-14T04:09:05.127Z,18.08
2022-11-14T04:11:31.747Z,17.00
2022-11-14T04:14:16.569Z,17.00
2022-11-14T04:21:34.116Z,16.73
2022-11-14T04:26:45.169Z,16.38
2022-11-14T04:31:55.820Z,16.65
2022-11-14T04:39:31.792Z,15.80
2022-11-14T04:47:08.083Z,16.00
2022-11-14T04:54:43.879Z,14.07
2022-11-14T04:57:29.220Z,13.48
2022-11-14T05:00:14.846Z,13.65
2022-11-14T05:03:00.308Z,13.07
2022-11-14T05:05:45.389Z,13.50
2022-11-14T05:08:12.038Z,13.63
2022-11-14T05:10:57.421Z,13.73
2022-11-14T05:13:24.054Z,15.07
2022-11-14T05:16:09.415Z,13.52
2022-11-14T05:18:36.238Z,13.85
2022-11-14T05:21:21.170Z,13.45
2022-11-14T05:24:06.562Z,13.18
2022-11-14T05:26:51.413Z,13.27
2022-11-14T05:29:18.099Z,13.73
2022-11-14T05:32:03.392Z,14.48
2022-11-14T05:34:49.027Z,13.85
2022-11-14T05:52:07.329Z,13.65
2022-11-14T05:54:53.613Z,13.95
2022-11-14T05:57:38.920Z,13.82
2022-11-14T06:00:06.074Z,13.13
2022-11-14T06:02:55.001Z,13.83
2022-11-14T06:05:22.655Z,13.95
2022-11-14T06:08:07.970Z,13.73
2022-11-14T06:13:00.757Z,14.35
2022-11-14T06:20:37.554Z,14.65
2022-11-14T06:23:04.207Z,15.32
2022-11-14T06:28:14.563Z,21.10
2022-11-14T06:47:59.755Z,14.77
2022-11-14T06:50:51.129Z,14.68
2022-11-14T06:55:43.361Z,14.02
2022-11-14T07:01:02.788Z,13.80
2022-11-14T07:06:16.246Z,16.58
2022-11-14T07:12:23.699Z,14.95
2022-11-14T07:15:09.030Z,14.65
2022-11-14T07:20:01.975Z,13.05
2022-11-14T07:30:04.407Z,17.92
2022-11-14T07:32:59.041Z,16.80
2022-11-14T07:38:09.651Z,15.73
2022-11-14T07:41:00.337Z,14.68
2022-11-14T07:43:46.139Z,14.80
2022-11-14T07:46:31.241Z,15.60
2022-11-14T07:54:07.392Z,14.55
2022-11-14T07:56:52.957Z,14.48
2022-11-14T07:59:38.146Z,13.50
2022-11-14T08:02:04.796Z,16.35
2022-11-14T08:04:49.706Z,14.40
2022-11-14T08:12:07.106Z,14.95
2022-11-14T08:14:52.362Z,14.10
2022-11-14T08:17:37.627Z,15.07
2022-11-14T08:20:22.837Z,14.20
2022-11-14T08:23:07.953Z,14.27
2022-11-14T08:27:59.955Z,15.93
2022-11-14T08:30:45.481Z,16.40
2022-11-14T08:42:58.843Z,12.15
2022-11-14T08:48:09.162Z,10.65
2022-11-14T08:50:54.295Z,9.80
2022-11-14T08:53:39.513Z,9.95
2022-11-14T08:56:06.242Z,9.55
2022-11-14T08:58:51.476Z,9.18
2022-11-14T09:01:36.616Z,10.35
2022-11-14T09:04:21.609Z,9.00
2022-11-14T09:06:48.338Z,7.93
2022-11-14T09:09:33.518Z,8.50
2022-11-14T09:12:00.115Z,8.52
2022-11-14T09:14:45.206Z,7.38
2022-11-14T09:17:11.843Z,7.32
2022-11-14T09:19:56.694Z,7.75
2022-11-14T09:29:40.530Z,7.10
2022-11-14T09:32:26.032Z,7.18
2022-11-14T09:35:12.894Z,8.00
2022-11-14T09:37:39.730Z,8.05
2022-11-14T09:40:24.975Z,7.88
2022-11-14T09:43:06.630Z,8.55
2022-11-14T09:45:52.138Z,8.32
2022-11-14T09:48:21.395Z,8.63
2022-11-14T09:51:08.039Z,9.32
2022-11-14T09:53:37.112Z,9.05
2022-11-14T09:56:26.286Z,9.68
2022-11-14T09:58:55.157Z,9.88
2022-11-14T10:01:48.159Z,9.10
2022-11-14T10:14:32.768Z,9.65
2022-11-14T10:20:02.087Z,11.57
2022-11-14T10:22:58.657Z,9.48
2022-11-14T10:31:05.410Z,9.15
2022-11-14T10:34:09.197Z,9.60
2022-11-14T10:36:57.548Z,9.75
2022-11-14T10:39:31.548Z,9.77
2022-11-14T10:42:25.135Z,9.23
2022-11-14T10:45:02.313Z,9.80
2022-11-14T10:47:51.549Z,9.60
2022-11-14T10:55:15.930Z,10.27
2022-11-14T10:58:01.124Z,10.15
2022-11-14T11:00:46.113Z,11.13
2022-11-14T11:03:12.823Z,10.45
2022-11-14T11:05:58.011Z,11.00
2022-11-14T11:09:02.296Z,10.48
2022-11-14T11:11:57.956Z,10.82
2022-11-14T11:14:24.734Z,10.50
2022-11-14T11:17:13.085Z,9.70
2022-11-14T11:19:39.822Z,9.98
2022-11-14T11:22:26.714Z,8.73
2022-11-14T11:27:22.579Z,9.77
2022-11-14T11:32:33.727Z,9.63
2022-11-14T11:35:19.095Z,9.98
2022-11-14T11:38:05.365Z,9.63
2022-11-14T11:45:23.378Z,9.82
2022-11-14T11:48:21.845Z,9.88
2022-11-14T11:51:12.375Z,9.68
2022-11-14T11:56:27.729Z,9.65
2022-11-14T11:59:28.155Z,15.60
2022-11-14T12:02:26.473Z,12.80
2022-11-14T12:04:54.762Z,11.63
2022-11-14T12:07:40.435Z,11.10
2022-11-14T12:10:20.016Z,10.55
2022-11-14T12:13:13.843Z,9.45
2022-11-14T12:18:27.787Z,7.85
2022-11-14T12:21:19.793Z,7.78
2022-11-14T12:24:08.073Z,7.28
2022-11-14T12:26:40.892Z,6.88
2022-11-14T12:29:26.145Z,6.80
2022-11-14T12:32:13.650Z,7.57
2022-11-14T12:34:59.641Z,6.88
2022-11-14T12:37:33.111Z,6.25
2022-11-14T12:40:25.383Z,5.95
2022-11-14T12:43:43.735Z,6.75
2022-11-14T12:46:49.295Z,4.63
2022-11-14T12:54:44.928Z,5.00
2022-11-14T12:57:49.394Z,5.95
2022-11-14T13:00:17.069Z,5.97
2022-11-14T13:03:02.486Z,5.65
2022-11-14T13:08:13.108Z,6.70
2022-11-14T13:10:58.828Z,6.75
2022-11-14T13:16:40.475Z,5.95
2022-11-14T13:25:00.517Z,5.97
2022-11-14T13:28:06.602Z,5.45
2022-11-14T13:30:51.959Z,5.47
2022-11-14T13:33:40.720Z,5.38
2022-11-14T13:41:47.941Z,4.03
2022-11-14T13:50:04.063Z,4.72
2022-11-14T13:52:49.599Z,5.05
2022-11-14T13:55:34.802Z,5.82
2022-11-14T13:58:31.766Z,4.93
2022-11-14T14:01:17.230Z,4.20
2022-11-14T14:04:05.431Z,6.03
2022-11-14T14:06:45.155Z,5.38
2022-11-14T14:09:37.081Z,5.68
2022-11-14T14:12:25.739Z,6.05
2022-11-14T14:15:29.389Z,6.03
2022-11-14T14:18:33.449Z,7.63
2022-11-14T14:26:37.953Z,7.25
2022-11-14T14:29:25.481Z,6.95
2022-11-14T14:32:12.406Z,6.88
2022-11-14T14:39:57.106Z,6.40
2022-11-14T14:42:46.079Z,5.78
2022-11-14T14:45:17.082Z,5.65
2022-11-14T14:48:04.406Z,2.00
2022-11-14T14:50:41.627Z,1.40
2022-11-14T14:53:28.048Z,1.08
2022-11-14T15:03:22.949Z,0.90
2022-11-14T15:11:14.196Z,2.00
2022-11-14T15:14:24.162Z,2.28
2022-11-14T15:17:09.791Z,1.77
2022-11-14T15:19:55.087Z,1.05
2022-11-14T15:25:12.097Z,0.95
2022-11-14T15:28:00.866Z,1.00
2022-11-14T15:31:02.288Z,0.95
2022-11-14T15:33:30.202Z,0.73
2022-11-14T15:36:19.294Z,1.63
2022-11-14T15:41:29.881Z,1.02
2022-11-14T15:47:23.739Z,1.05
2022-11-14T16:02:33.554Z,1.50
2022-11-14T16:05:21.332Z,1.02
2022-11-14T16:10:14.899Z,1.60
2022-11-14T16:15:25.401Z,1.73
2022-11-14T16:21:32.443Z,1.67
2022-11-14T16:24:21.947Z,2.70
2022-11-14T16:26:48.999Z,4.80
2022-11-14T16:29:34.596Z,4.20
2022-11-14T16:32:20.218Z,3.20
2022-11-14T16:35:08.244Z,4.13
2022-11-14T16:37:38.793Z,3.33
2022-11-14T16:40:27.958Z,3.30
2022-11-14T16:45:21.280Z,3.40
2022-11-14T16:48:08.319Z,2.42
2022-11-14T16:50:56.786Z,5.10
2022-11-14T16:53:23.730Z,19.58
2022-11-14T16:56:11.618Z,9.00
2022-11-14T16:58:41.180Z,5.82
2022-11-14T17:01:27.429Z,2.95
2022-11-14T17:09:06.692Z,1.88
2022-11-14T17:11:51.920Z,6.20
2022-11-14T17:14:36.923Z,11.60
2022-11-14T17:19:30.498Z,8.45
2022-11-14T17:22:16.863Z,15.95
2022-11-14T17:24:43.587Z,24.23
2022-11-14T17:27:28.806Z,29.40
2022-11-14T17:32:20.805Z,7.13
2022-11-14T17:39:56.978Z,11.48
2022-11-14T17:42:42.383Z,10.95
2022-11-14T17:45:27.300Z,8.70
2022-11-14T17:48:13.302Z,12.15
2022-11-14T17:51:05.607Z,5.97
2022-11-14T17:55:58.286Z,7.40
2022-11-14T18:01:12.230Z,9.10
2022-11-14T18:04:01.646Z,12.52
2022-11-14T18:09:15.405Z,8.75
2022-11-14T18:19:20.596Z,9.18
2022-11-14T18:22:06.056Z,6.03
2022-11-14T18:27:35.845Z,4.22
2022-11-14T18:30:40.438Z,4.85
2022-11-14T18:33:07.763Z,4.03
2022-11-14T18:35:56.848Z,6.40
2022-11-14T18:40:52.943Z,4.05
2022-11-14T18:46:11.395Z,4.32
2022-11-14T18:48:57.408Z,5.10
2022-11-14T18:51:42.713Z,5.47
2022-11-14T18:56:53.570Z,5.55
2022-11-14T18:59:38.703Z,5.28
2022-11-14T19:06:56.540Z,8.35
2022-11-14T19:09:23.832Z,9.38
2022-11-14T19:12:24.041Z,8.80
2022-11-14T19:17:36.662Z,9.30
2022-11-14T19:20:23.207Z,8.88
2022-11-14T19:23:08.312Z,9.60
2022-11-14T19:32:51.550Z,9.95
2022-11-14T19:35:39.728Z,7.00
2022-11-14T19:38:06.331Z,6.50
2022-11-14T19:40:51.528Z,5.85
2022-11-14T19:43:18.827Z,5.38
2022-11-14T19:46:04.617Z,5.78
2022-11-14T19:48:33.283Z,6.10
2022-11-14T19:51:18.520Z,5.43
2022-11-14T19:58:56.830Z,6.85
2022-11-14T20:04:12.617Z,5.82
2022-11-14T20:06:58.124Z,6.10
2022-11-14T20:09:25.010Z,5.85
2022-11-14T20:12:10.685Z,5.72
2022-11-14T20:19:47.022Z,7.03
2022-11-14T20:22:33.026Z,6.72
2022-11-14T20:25:18.238Z,7.75
2022-11-14T20:27:45.120Z,7.13
2022-11-14T20:30:30.775Z,8.60
2022-11-14T20:38:07.968Z,8.13
2022-11-14T20:40:56.396Z,8.40
2022-11-14T20:43:41.926Z,8.38
2022-11-14T20:46:13.298Z,9.15
2022-11-14T20:48:58.398Z,8.60
2022-11-14T20:54:10.571Z,8.55
2022-11-14T20:59:21.386Z,8.68
2022-11-14T21:02:06.999Z,7.53
2022-11-14T21:04:52.490Z,7.05
2022-11-14T21:07:19.173Z,7.43
2022-11-14T21:10:23.430Z,6.85
2022-11-14T21:13:12.358Z,7.30
2022-11-14T21:18:24.459Z,7.28
2022-11-14T21:21:11.250Z,6.78
2022-11-14T21:23:56.838Z,6.60
2022-11-14T21:28:53.579Z,7.53
2022-11-14T21:31:40.915Z,6.97
2022-11-14T21:36:52.214Z,7.03
2022-11-14T21:46:53.603Z,5.30
2022-11-14T21:52:04.300Z,4.40
2022-11-14T21:57:14.989Z,4.72
2022-11-14T22:00:00.295Z,4.53
2022-11-14T22:02:45.612Z,4.82
2022-11-14T22:05:12.216Z,5.00
2022-11-14T22:12:48.268Z,3.80
2022-11-14T22:15:35.142Z,3.90
2022-11-14T22:18:20.323Z,3.80
2022-11-14T22:28:23.228Z,3.10
2022-11-14T22:31:26.399Z,2.65
2022-11-14T22:34:11.706Z,3.05
2022-11-14T22:36:38.297Z,2.85
2022-11-14T22:39:23.383Z,2.50
2022-11-14T22:41:50.054Z,2.95
2022-11-14T22:44:35.234Z,3.60
2022-11-14T22:47:01.860Z,3.15
2022-11-14T22:49:47.180Z,3.00
2022-11-14T22:52:13.772Z,2.88
2022-11-14T22:54:59.046Z,3.08
2022-11-14T22:59:51.642Z,2.95
2022-11-14T23:05:02.424Z,2.30
2022-11-14T23:10:12.977Z,2.17
2022-11-14T23:12:57.901Z,2.40
2022-11-14T23:15:46.548Z,1.95
2022-11-14T23:18:31.908Z,2.58
2022-11-14T23:21:03.599Z,2.33
2022-11-14T23:24:15.613Z,2.55
2022-11-14T23:31:33.130Z,2.42
2022-11-14T23:36:43.760Z,2.58
2022-11-14T23:39:28.830Z,2.08
2022-11-14T23:42:13.954Z,2.40
2022-11-14T23:44:40.538Z,2.20
2022-11-14T23:47:25.566Z,1.92
2022-11-14T23:49:52.144Z,2.03
2022-11-14T23:52:36.963Z,2.13
2022-11-14T23:55:22.115Z,1.85
2022-11-14T23:58:07.014Z,2.90
